Tiempo atmosférico en la estación meteorológica de Villalón De Campos, Valladolid (763 m.)



Fecha
DESCASC
Temp. máxima en grados centígrados (hora)
DESCASC
Temp. mínima en grados centígrados (hora)
DESCASC
Temp. media en grados centígrados
DESCASC
Racha de viento máxima en m/sg (hora)
DESCASC
Velocidad máxima media en intervalos de 10 minutos(hora)
DESCASC
Precipitaciones diarias en mm
DESCASC
Precipitaciones de 00:00 a 06:00 en mm
DESCASC
Precipitaciones de 06:00 a 12:00 en mm
DESCASC
Precipitaciones de 12:00 a 18:00 en mm
DESCASC
Precipitaciones de 18:00 a 24:00 en mm
DESCASC
18-08-2019 29.1 (15:30) 14.1 (07:40) 21.6 12.5 (16:30) 8.33 (16:30) 0 0 0 0 0
17-08-2019 34.5 (18:50) 13.6 (07:40) 24.1 10.56 (20:00) 6.39 (20:00) 0 0 0 0 0
16-08-2019 33.7 (20:20) 14.5 (07:20) 24.1 10.28 (16:20) 5 (22:10) 0 0 0 0 0
15-08-2019 31.8 (17:30) 14.2 (00:00) 23 9.72 (21:30) 5.28 (00:10) 0 0 0 0 0
14-08-2019 30.2 (18:30) 10.3 (00:00) 20.3 8.89 (23:10) 6.39 (23:10) 0 0 0 0 0
13-08-2019 27.2 (18:50) 9.7 (00:00) 18.5 10 (00:40) 4.44 (00:40) 0 0 0 0 0
12-08-2019 23.9 (17:20) 7.2 (00:00) 15.5 10.28 (12:10) 5 (21:30) 0 0 0 0 0
11-08-2019 24.9 (17:10) 12.4 (00:00) 18.6 11.94 (21:20) 8.61 (20:40) 2 2 0 0 0
10-08-2019 28.6 (17:50) 14.1 (00:00) 21.4 9.17 (19:00) 5 (22:30) 0 0 0 0 0
09-08-2019 26.3 (16:20) 16.3 (00:00) 21.3 17.22 (17:10) 10.28 (13:40) 0 0 0 0 0
08-08-2019 30.9 (16:50) 17.5 (00:00) 24.2 13.89 (17:10) 9.72 (19:20) 0.2 0 0.2 0 0
07-08-2019 27.2 (15:10) 15.1 (00:00) 21.2 12.78 (19:10) 8.89 (19:10) 1 0 0.2 0 0.8
06-08-2019 30.9 (14:10) 14.8 (00:00) 22.8 11.39 (22:10) 7.5 (21:20) 0.6 0 0 0 0.6
05-08-2019 32.5 (16:30) 14.8 (00:00) 23.7 6.94 (16:00) 3.89 (17:50) 0 0 0 0 0
04-08-2019 33.7 (16:40) 14.5 (00:00) 24.1 9.17 (16:40) 5.83 (18:20) 0 0 0 0 0
03-08-2019 34.8 (16:10) 16.4 (00:00) 25.6 8.06 (18:30) 4.72 (22:10) 0 0 0 0 0
02-08-2019 33 (17:20) 13.3 (00:00) 23.2 8.33 (00:20) 3.61 (08:50) 0 0 0 0 0
01-08-2019 30.7 (19:20) 13.8 (00:00) 22.3 10.28 (21:50) 5.28 (22:10) 0 0 0 0 0
31-07-2019 29.3 (17:00) 11.2 (00:00) 20.2 9.17 (00:10) 4.72 (09:50) 0 0 0 0 0
30-07-2019 26.2 (20:00) 8.9 (00:00) 17.6 8.61 (22:20) 5.83 (01:20) 0 0 0 0 0
29-07-2019 26.8 (17:30) 12.8 (00:00) 19.8 12.22 (16:00) 7.5 (21:20) 0 0 0 0 0
28-07-2019 27.6 (20:30) 8.9 (00:00) 18.3 6.11 (15:30) 3.61 (19:10) 0 0 0 0 0
27-07-2019 22.9 (17:50) 12.5 (00:00) 17.7 11.11 (13:40) 5.83 (11:30) 0.2 0 0.2 0 0
26-07-2019 29.2 (18:20) 16 (00:00) 22.6 9.72 (21:20) 5.56 (00:20) 0.2 0.2 0 0 0
25-07-2019 33.2 (17:20) 18.6 (00:00) 25.9 12.5 (16:00) 9.17 (14:10) 0 0 0 0 0
24-07-2019 35.6 (17:40) 17.5 (00:00) 26.5 13.61 (15:20) 6.67 (17:10) 0 0 0 0 0

Gráficas

Temp. máximas Temp. mínimas Temp. medias Precipitaciones Rachas de viento máximas Velocidades máximas media en intervalos de 10 minutos

Datos horarios

Fecha y hora oficial Temperatura (ºC) Velocidad del viento (km/h) Dirección del viento Racha (km/h) Dirección de racha Precipitación (mm) Presión (hPa) Tendencia (hPa) Humedad (%)
2019-08-22 23:00:00 20.2 9 Nordeste 16 Nordeste 0 -- -- 30
2019-08-22 22:00:00 22.5 6 Nordeste 12 Este 0 -- -- 24
2019-08-22 21:00:00 26.6 2 Este 11 Este 0 -- -- 20
2019-08-22 20:00:00 30.1 4 Este 15 Este 0 -- -- 17
2019-08-22 19:00:00 30.1 9 Este 21 Este 0 -- -- 14
2019-08-22 18:00:00 30.5 8 Este 21 Este 0 -- -- 14
2019-08-22 17:00:00 29.9 8 Nordeste 26 Este 0 -- -- 15
2019-08-22 16:00:00 29.2 9 Nordeste 23 Nordeste 0 -- -- 20
2019-08-22 15:00:00 28.2 11 Nordeste 24 Nordeste 0 -- -- 21
2019-08-22 14:00:00 27.7 10 Este 27 Este 0 -- -- 23
2019-08-22 13:00:00 26.1 14 Este 34 Este 0 -- -- 22
2019-08-22 12:00:00 23.9 13 Este 29 Este 0 -- -- 27
2019-08-22 11:00:00 21.1 12 Nordeste 31 Este 0 -- -- 37
2019-08-22 10:00:00 19 13 Este 25 Nordeste 0 -- -- 46
2019-08-22 09:00:00 15.1 10 Nordeste 21 Nordeste 0 -- -- 59
2019-08-22 08:00:00 12.7 9 Nordeste 18 Nordeste 0 -- -- 69
2019-08-22 07:00:00 11.7 4 Norte 14 Nordeste 0 -- -- 77
2019-08-22 06:00:00 13.3 8 Nordeste 23 Este 0 -- -- 73
2019-08-22 05:00:00 14 14 Nordeste 24 Este 0 -- -- 75
2019-08-22 04:00:00 14.5 12 Nordeste 29 Este 0 -- -- 76
2019-08-22 03:00:00 15.1 14 Este 39 Este 0 -- -- 77
2019-08-22 02:00:00 15.8 17 Nordeste 36 Nordeste 0 -- -- 76
2019-08-22 01:00:00 16.6 14 Nordeste 37 Este 0 -- -- 73
2019-08-22 00:00:00 17.7 14 Nordeste 32 Este 0 -- -- 68
2019-08-21 23:00:00 19.4 16 Este 40 Este 0 -- -- 64
2019-08-21 22:00:00 22.5 15 Nordeste 32 Este 0 -- -- 53
2019-08-21 21:00:00 26.9 5 Este 12 Nordeste 0 -- -- 34
2019-08-21 20:00:00 29.2 5 Norte 14 Nordeste 0 -- -- 29
2019-08-21 19:00:00 30.6 5 Sudoeste 15 Noroeste 0 -- -- 29
2019-08-21 18:00:00 29.7 7 Oeste 15 Noroeste 0 -- -- 32
2019-08-21 17:00:00 29.7 6 Este 15 Noroeste 0 -- -- 36
2019-08-21 16:00:00 27.5 8 Noroeste 14 Nordeste 0 -- -- 41
2019-08-21 15:00:00 27.6 4 Sur 17 Sudeste 0 -- -- 42
2019-08-21 14:00:00 25.6 6 Nordeste 21 Nordeste 0 -- -- 47
2019-08-21 13:00:00 22.7 10 Nordeste 20 Nordeste 0 -- -- 51
2019-08-21 12:00:00 20.4 9 Este 23 Nordeste 0 -- -- 57
2019-08-21 11:00:00 18.4 11 Este 25 Este 0 -- -- 62
2019-08-21 10:00:00 15.5 12 Este 30 Este 0 -- -- 71
2019-08-21 09:00:00 13.8 11 Nordeste 20 Nordeste 0 -- -- 77
2019-08-21 08:00:00 12.9 11 Nordeste 26 Nordeste 0 -- -- 79
2019-08-21 07:00:00 13.1 12 Nordeste 28 Nordeste 0 -- -- 78
2019-08-21 06:00:00 13.2 11 Nordeste 32 Este 0 -- -- 77
2019-08-21 05:00:00 13.5 13 Nordeste 31 Este 0 -- -- 76
2019-08-21 04:00:00 13.6 15 Nordeste 32 Este 0 -- -- 75
2019-08-21 03:00:00 13.9 18 Nordeste 42 Nordeste 0 -- -- 74
2019-08-21 02:00:00 14 17 Nordeste 33 Este 0 -- -- 74
2019-08-21 01:00:00 14.4 16 Nordeste 35 Este 0 -- -- 71
2019-08-21 00:00:00 14.7 14 Nordeste 30 Nordeste 0 -- -- 71
2019-08-20 23:00:00 15.7 15 Nordeste 31 Nordeste 0 -- -- 66
2019-08-20 22:00:00 17 14 Nordeste 31 Nordeste 0 -- -- 59
2019-08-20 21:00:00 19.2 17 Nordeste 36 Nordeste 0 -- -- 50
2019-08-20 20:00:00 21.5 19 Nordeste 35 Nordeste 0 -- -- 42
2019-08-20 19:00:00 22.7 18 Nordeste 39 Nordeste 0 -- -- 39
2019-08-20 18:00:00 23.5 15 Nordeste 37 Nordeste 0 -- -- 39
2019-08-20 17:00:00 23.4 19 Nordeste 36 Este 0 -- -- 39
2019-08-20 16:00:00 22.9 19 Nordeste 47 Este 0 -- -- 42
2019-08-20 15:00:00 22.2 19 Este 41 Este 0 -- -- 46
2019-08-20 14:00:00 21.1 18 Nordeste 41 Este 0 -- -- 50
2019-08-20 13:00:00 20.3 17 Este 39 Este 0 -- -- 52
2019-08-20 12:00:00 19.4 19 Nordeste 40 Nordeste 0 -- -- 56
2019-08-20 11:00:00 18.3 18 Nordeste 35 Este 0 -- -- 56
2019-08-20 10:00:00 16.5 16 Nordeste 37 Nordeste 0 -- -- 62
2019-08-20 09:00:00 13.9 16 Nordeste 34 Este 0 -- -- 74
2019-08-20 08:00:00 12.8 15 Nordeste 31 Nordeste 0 -- -- 81
2019-08-20 07:00:00 12.3 10 Nordeste 19 Nordeste 0 -- -- 82
2019-08-20 06:00:00 13 15 Nordeste 28 Nordeste 0 -- -- 79
2019-08-20 05:00:00 13.5 14 Nordeste 28 Nordeste 0 -- -- 79
2019-08-20 04:00:00 14 15 Nordeste 26 Nordeste 0 -- -- 77
2019-08-20 03:00:00 14.5 14 Nordeste 31 Nordeste 0 -- -- 75
2019-08-20 02:00:00 14.5 19 Nordeste 36 Nordeste 0 -- -- 74
2019-08-20 01:00:00 14.6 17 Nordeste 37 Nordeste 0 -- -- 73
2019-08-20 00:00:00 14.7 17 Nordeste 41 Nordeste 0 -- -- 73
2019-08-19 23:00:00 15.3 16 Nordeste 34 Nordeste 0 -- -- 71
2019-08-19 22:00:00 15.5 19 Nordeste 37 Nordeste 0 -- -- 72
2019-08-19 21:00:00 16.9 17 Nordeste 38 Nordeste 0 -- -- 66
2019-08-19 20:00:00 19 17 Nordeste 35 Este 0 -- -- 58
2019-08-19 19:00:00 20.2 14 Este 35 Nordeste 0 -- -- 54
2019-08-19 18:00:00 21 14 Este 33 Este 0 -- -- 51
2019-08-19 17:00:00 22.8 15 Este 31 Este 0 -- -- 47
2019-08-19 16:00:00 23.2 13 Este 31 Este 0 -- -- 46
2019-08-19 15:00:00 22.2 15 Nordeste 31 Nordeste 0 -- -- 48
2019-08-19 14:00:00 21.3 13 Nordeste 36 Este 0 -- -- 51
2019-08-19 13:00:00 20.2 17 Nordeste 33 Nordeste 0 -- -- 56
2019-08-19 12:00:00 19 15 Nordeste 31 Nordeste 0 -- -- 59
2019-08-19 11:00:00 17.9 15 Nordeste 35 Este 0 -- -- 64
2019-08-19 10:00:00 16.5 15 Nordeste 31 Nordeste 0 -- -- 68
2019-08-19 09:00:00 14.1 15 Nordeste 26 Nordeste 0 -- -- 77
2019-08-19 08:00:00 13.7 9 Nordeste 21 Nordeste 0 -- -- 79
2019-08-19 07:00:00 13.7 9 Nordeste 20 Nordeste 0 -- -- 79
2019-08-19 06:00:00 13.6 11 Nordeste 18 Nordeste 0 -- -- 78
2019-08-19 05:00:00 13.4 10 Nordeste 20 Nordeste 0 -- -- 79
2019-08-19 04:00:00 13.6 9 Nordeste 20 Este 0 -- -- 79
2019-08-19 03:00:00 13.7 8 Nordeste 16 Nordeste 0 -- -- 81
2019-08-19 02:00:00 14 8 Este 21 Este 0 -- -- 80
2019-08-19 01:00:00 15 8 Nordeste 22 Este 0 -- -- 78
2019-08-19 00:00:00 16.3 10 Nordeste 24 Este 0 -- -- 74
2019-08-18 23:00:00 18.9 11 Este 23 Nordeste 0 -- -- 65
2019-08-18 22:00:00 22.3 17 Noroeste 27 Noroeste 0 -- -- 45
2019-08-18 21:00:00 24.1 5 Norte 10 Nordeste 0 -- -- 52
2019-08-18 20:00:00 23.9 6 Norte 22 Noroeste 0 -- -- 53
2019-08-18 19:00:00 25 17 Noroeste 30 Noroeste 0 -- -- 53
2019-08-18 18:00:00 24.3 20 Oeste 43 Oeste 0 -- -- 56
2019-08-18 17:00:00 25.2 26 Noroeste 45 Oeste 0 -- -- 54
2019-08-18 16:00:00 28.6 22 Oeste 40 Sudoeste 0 -- -- 42
2019-08-18 15:00:00 28 18 Sudoeste 30 Sudoeste 0 -- -- 40
2019-08-18 14:00:00 27.3 13 Sudoeste 24 Sudoeste 0 -- -- 40
2019-08-18 13:00:00 24.5 9 Sudoeste 18 Sudoeste 0 -- -- 47
2019-08-18 12:00:00 23.5 6 Sudoeste 13 Sur 0 -- -- 48
2019-08-18 11:00:00 22.3 8 Sudoeste 15 Sudoeste 0 -- -- 53
2019-08-18 10:00:00 21 9 Sudoeste 21 Oeste 0 -- -- 57
2019-08-18 09:00:00 16.5 11 Sudoeste 17 Sudoeste 0 -- -- 72
2019-08-18 08:00:00 14.3 7 Sudoeste 14 Sudoeste 0 -- -- 75
2019-08-18 07:00:00 14.6 10 Sudoeste 15 Sudoeste 0 -- -- 73
2019-08-18 06:00:00 16 11 Sudoeste 17 Oeste 0 -- -- 68
2019-08-18 05:00:00 16.1 9 Sudoeste 13 Sudoeste 0 -- -- 67
2019-08-18 04:00:00 16.4 5 Sudoeste 8 Oeste 0 -- -- 66
2019-08-18 03:00:00 17.9 4 Oeste 18 Noroeste 0 -- -- 62
2019-08-18 02:00:00 20.1 14 Noroeste 19 Noroeste 0 -- -- 55
2019-08-18 01:00:00 20.1 10 Oeste 13 Oeste 0 -- -- 52
2019-08-18 00:00:00 20.3 8 Noroeste 13 Noroeste 0 -- -- 46
2019-08-17 23:00:00 21.7 8 Oeste 15 Oeste 0 -- -- 42
2019-08-17 22:00:00 24.6 12 Oeste 19 Oeste 0 -- -- 36
2019-08-17 21:00:00 29.4 16 Oeste 30 Oeste 0 -- -- 28
2019-08-17 20:00:00 32.2 23 Sudoeste 38 Oeste 0 -- -- 25
2019-08-17 19:00:00 33.2 22 Oeste 36 Oeste 0 -- -- 23
2019-08-17 18:00:00 33.2 14 Sudoeste 36 Oeste 0 -- -- 24
2019-08-17 17:00:00 32.2 16 Oeste 30 Oeste 0 -- -- 24
2019-08-17 16:00:00 32.1 17 Sudoeste 30 Sudoeste 0 -- -- 25
2019-08-17 15:00:00 30.9 10 Sudoeste 25 Sudoeste 0 -- -- 29
2019-08-17 14:00:00 31.1 12 Sudoeste 23 Sudoeste 0 -- -- 27
2019-08-17 13:00:00 29.7 8 Sur 17 Sudoeste 0 -- -- 29
2019-08-17 12:00:00 26.7 5 Oeste 14 Oeste 0 -- -- 38
2019-08-17 11:00:00 24.5 8 Oeste 19 Noroeste 0 -- -- 43
2019-08-17 10:00:00 21.5 14 Noroeste 21 Oeste 0 -- -- 54
2019-08-17 09:00:00 18.7 8 Oeste 13 Oeste 0 -- -- 67
2019-08-17 08:00:00 13.9 5 Sudoeste 10 Oeste 0 -- -- 87
2019-08-17 07:00:00 14.6 9 Oeste 17 Oeste 0 -- -- 80
2019-08-17 06:00:00 14.6 4 Oeste 8 Oeste 0 -- -- 79
2019-08-17 05:00:00 14.8 3 Oeste 7 Oeste 0 -- -- 75
2019-08-17 04:00:00 16.2 6 Noroeste 10 Norte 0 -- -- 64
2019-08-17 03:00:00 17 2 Noroeste 7 Noroeste 0 -- -- 60
2019-08-17 02:00:00 21.1 7 Norte 27 Norte 0 -- -- 50
2019-08-17 01:00:00 22.2 11 Noroeste 24 Noroeste 0 -- -- 49
2019-08-17 00:00:00 22.7 14 Noroeste 25 Noroeste 0 -- -- 40
2019-08-16 23:00:00 23.8 14 Noroeste 25 Noroeste 0 -- -- 34
2019-08-16 22:00:00 26.4 14 Oeste 24 Oeste 0 -- -- 31
2019-08-16 21:00:00 28.8 2 Sudeste 9 Sur 0 -- -- 32
2019-08-16 20:00:00 32.4 11 Sudoeste 20 Oeste 0 -- -- 25
2019-08-16 19:00:00 33.2 10 Sudoeste 23 Oeste 0 -- -- 23
2019-08-16 18:00:00 32.5 12 Oeste 26 Oeste 0 -- -- 20
2019-08-16 17:00:00 31.5 14 Oeste 37 Oeste 0 -- -- 27
2019-08-16 16:00:00 31.2 12 Oeste 28 Noroeste 0 -- -- 30
2019-08-16 15:00:00 30.8 15 Oeste 32 Sudoeste 0 -- -- 33
2019-08-16 14:00:00 30.1 10 Sudoeste 28 Oeste 0 -- -- 36
2019-08-16 13:00:00 28.5 5 Oeste 12 Sudeste 0 -- -- 38
2019-08-16 12:00:00 26 5 Nordeste 12 Este 0 -- -- 42
2019-08-16 11:00:00 24.8 6 Sudeste 15 Este 0 -- -- 44
2019-08-16 10:00:00 22.1 6 Este 17 Nordeste 0 -- -- 50
2019-08-16 09:00:00 17.6 9 Nordeste 18 Nordeste 0 -- -- 62
2019-08-16 08:00:00 15.1 10 Nordeste 15 Nordeste 0 -- -- 72
2019-08-16 07:00:00 14.8 8 Nordeste 16 Nordeste 0 -- -- 75
2019-08-16 06:00:00 15.2 9 Nordeste 16 Nordeste 0 -- -- 75
2019-08-16 05:00:00 15.5 9 Nordeste 17 Nordeste 0 -- -- 74
2019-08-16 04:00:00 16.2 8 Nordeste 18 Este 0 -- -- 72
2019-08-16 03:00:00 17.3 6 Este 23 Este 0 -- -- 66
2019-08-16 02:00:00 18.4 11 Nordeste 26 Este 0 -- -- 61
2019-08-16 01:00:00 19.1 13 Nordeste 27 Este 0 -- -- 62
2019-08-16 00:00:00 20 13 Este 29 Este 0 -- -- 61
2019-08-15 23:00:00 21.2 13 Este 32 Nordeste 0 -- -- 58
2019-08-15 22:00:00 23.1 16 Nordeste 35 Nordeste 0 -- -- 52
2019-08-15 21:00:00 28 4 Norte 11 Norte 0 -- -- 37
2019-08-15 20:00:00 28.6 8 Norte 24 Noroeste 0 -- -- 36
2019-08-15 19:00:00 30.3 14 Noroeste 28 Noroeste 0 -- -- 32
2019-08-15 18:00:00 31.1 11 Sudoeste 25 Oeste 0 -- -- 33
2019-08-15 17:00:00 29.6 10 Noroeste 28 Noroeste 0 -- -- 35
2019-08-15 16:00:00 28.6 9 Noroeste 23 Oeste 0 -- -- 37
2019-08-15 15:00:00 27.4 5 Noroeste 19 Oeste 0 -- -- 39
2019-08-15 14:00:00 28 7 Sur 16 Sur 0 -- -- 39
2019-08-15 13:00:00 26.3 6 Sudeste 16 Este 0 -- -- 44
2019-08-15 12:00:00 24.4 7 Este 17 Sudeste 0 -- -- 49
2019-08-15 11:00:00 22.1 8 Nordeste 19 Este 0 -- -- 61
2019-08-15 10:00:00 20.2 9 Este 19 Este 0 -- -- 70
2019-08-15 09:00:00 16.8 7 Nordeste 12 Nordeste 0 -- -- 83
2019-08-15 08:00:00 14.2 5 Norte 10 Nordeste 0 -- -- 90
2019-08-15 07:00:00 14.6 7 Nordeste 15 Nordeste 0 -- -- 89
2019-08-15 06:00:00 15 10 Nordeste 14 Nordeste 0 -- -- 87
2019-08-15 05:00:00 15.7 6 Nordeste 16 Nordeste 0 -- -- 83
2019-08-15 04:00:00 16.4 7 Nordeste 21 Este 0 -- -- 79
2019-08-15 03:00:00 17.6 8 Nordeste 18 Este 0 -- -- 73
2019-08-15 02:00:00 19.1 6 Este 16 Este 0 -- -- 66
2019-08-15 01:00:00 20.4 8 Nordeste 30 Norte 0 -- -- 60
2019-08-15 00:00:00 23 19 Noroeste 32 Noroeste 0 -- -- 56
2019-08-14 23:00:00 23.8 20 Noroeste 31 Noroeste 0 -- -- 55
2019-08-14 22:00:00 24.6 10 Noroeste 14 Noroeste 0 -- -- 47
2019-08-14 21:00:00 27.8 10 Noroeste 21 Noroeste 0 -- -- 39
2019-08-14 20:00:00 29.5 12 Noroeste 24 Noroeste 0 -- -- 34
2019-08-14 19:00:00 29.9 13 Oeste 31 Noroeste 0 -- -- 35
2019-08-14 18:00:00 29.5 10 Noroeste 26 Noroeste 0 -- -- 36
2019-08-14 17:00:00 29.3 10 Oeste 28 Oeste 0 -- -- 36
2019-08-14 16:00:00 28.9 10 Oeste 23 Oeste 0 -- -- 33
2019-08-14 15:00:00 27.6 13 Oeste 23 Noroeste 0 -- -- 33
2019-08-14 14:00:00 27 8 Oeste 19 Noroeste 0 -- -- 34
2019-08-14 13:00:00 25.4 9 Oeste 20 Oeste 0 -- -- 35
2019-08-14 12:00:00 24.5 5 Oeste 8 Norte 0 -- -- 38
2019-08-14 11:00:00 21.3 4 Norte 10 Nordeste 0 -- -- 46
2019-08-14 10:00:00 19 3 Nordeste 10 Norte 0 -- -- 55
2019-08-14 09:00:00 14.4 5 Nordeste 8 Norte 0 -- -- 74
2019-08-14 08:00:00 10.4 3 Noroeste 6 Norte 0 -- -- 83
2019-08-14 07:00:00 11.3 0 Calma 7 Este 0 -- -- 82
2019-08-14 06:00:00 12.3 3 Este 8 Este 0 -- -- 79
2019-08-14 05:00:00 13.1 4 Este 10 Nordeste 0 -- -- 76
2019-08-14 04:00:00 13.9 5 Este 13 Nordeste 0 -- -- 72
2019-08-14 03:00:00 14.8 6 Este 17 Nordeste 0 -- -- 69
2019-08-14 02:00:00 15.5 9 Nordeste 21 Este 0 -- -- 63
2019-08-14 01:00:00 16.4 9 Nordeste 16 Nordeste 0 -- -- 53
2019-08-14 00:00:00 15.1 0 Calma 8 Este 0 -- -- 48
2019-08-13 23:00:00 16.4 2 Oeste 4 Noroeste 0 -- -- 44
2019-08-13 22:00:00 18.9 0 Calma 4 Oeste 0 -- -- 36
2019-08-13 21:00:00 24.4 3 Noroeste 13 Noroeste 0 -- -- 25
2019-08-13 20:00:00 25.4 8 Noroeste 19 Oeste 0 -- -- 26
2019-08-13 19:00:00 26.2 7 Noroeste 17 Noroeste 0 -- -- 26
2019-08-13 18:00:00 26 4 Norte 19 Noroeste 0 -- -- 26
2019-08-13 17:00:00 25.3 6 Oeste 19 Oeste 0 -- -- 26
2019-08-13 16:00:00 24.7 6 Sudoeste 17 Norte 0 -- -- 30
2019-08-13 15:00:00 23.8 5 Sur 20 Norte 0 -- -- 33
2019-08-13 14:00:00 22 9 Nordeste 18 Este 0 -- -- 38
2019-08-13 13:00:00 20.6 9 Este 22 Este 0 -- -- 40
2019-08-13 12:00:00 18.9 10 Este 26 Este 0 -- -- 45
2019-08-13 11:00:00 17.3 12 Nordeste 27 Este 0 -- -- 50
2019-08-13 10:00:00 15 13 Nordeste 24 Nordeste 0 -- -- 60
2019-08-13 09:00:00 11.7 11 Nordeste 20 Nordeste 0 -- -- 75
2019-08-13 08:00:00 9.9 6 Nordeste 14 Este 0 -- -- 81
2019-08-13 07:00:00 9.9 8 Este 17 Este 0 -- -- 80
2019-08-13 06:00:00 10.2 8 Nordeste 17 Nordeste 0 -- -- 78
2019-08-13 05:00:00 10.8 8 Este 21 Nordeste 0 -- -- 74
2019-08-13 04:00:00 11.4 12 Nordeste 21 Este 0 -- -- 73
2019-08-13 03:00:00 12 10 Este 26 Nordeste 0 -- -- 72
2019-08-13 02:00:00 12.6 10 Este 33 Este 0 -- -- 71
2019-08-13 01:00:00 13 14 Este 36 Este 0 -- -- 69
2019-08-13 00:00:00 13.6 16 Este 34 Este 0 -- -- 66
2019-08-12 23:00:00 14.4 13 Este 32 Nordeste 0 -- -- 61
2019-08-12 22:00:00 15.7 14 Nordeste 32 Este 0 -- -- 56
2019-08-12 21:00:00 18.2 17 Este 32 Este 0 -- -- 48
2019-08-12 20:00:00 20.6 9 Este 23 Este 0 -- -- 38
2019-08-12 19:00:00 22.2 6 Norte 20 Nordeste 0 -- -- 31
2019-08-12 18:00:00 23.1 8 Este 23 Este 0 -- -- 31
2019-08-12 17:00:00 22 5 Noroeste 22 Norte 0 -- -- 32
2019-08-12 16:00:00 21.7 9 Nordeste 23 Nordeste 0 -- -- 33
2019-08-12 15:00:00 21.1 9 Nordeste 24 Nordeste 0 -- -- 33
2019-08-12 14:00:00 20.5 11 Norte 30 Norte 0 -- -- 37
2019-08-12 13:00:00 18.8 13 Norte 37 Norte 0 -- -- 38
2019-08-12 12:00:00 17.7 17 Norte 26 Noroeste 0 -- -- 40
2019-08-12 11:00:00 15.6 15 Norte 22 Norte 0 -- -- 52
2019-08-12 10:00:00 13.5 9 Norte 15 Nordeste 0 -- -- 63
2019-08-12 09:00:00 10.4 9 Norte 14 Norte 0 -- -- 77
2019-08-12 08:00:00 7.8 5 Noroeste 7 Norte 0 -- -- 88
2019-08-12 07:00:00 7.9 3 Noroeste 5 Noroeste 0 -- -- 85
2019-08-12 06:00:00 8.7 3 Norte 4 Nordeste 0 -- -- 84
2019-08-12 05:00:00 9 3 Norte 8 Norte 0 -- -- 82
2019-08-12 04:00:00 8.7 4 Norte 6 Noroeste 0 -- -- 86
2019-08-12 03:00:00 9.5 0 Calma 6 Norte 0 -- -- 83
2019-08-12 02:00:00 10.4 3 Norte 5 Noroeste 0 -- -- 82
2019-08-12 01:00:00 12.2 4 Norte 11 Nordeste 0 -- -- 76
2019-08-12 00:00:00 13.3 6 Norte 17 Nordeste 0 -- -- 71
2019-08-11 23:00:00 15.3 9 Nordeste 30 Nordeste 0 -- -- 64
2019-08-11 22:00:00 17.2 18 Norte 43 Noroeste 0 -- -- 53
2019-08-11 21:00:00 18.9 27 Noroeste 42 Noroeste 0 -- -- 44
2019-08-11 20:00:00 22.4 21 Noroeste 28 Noroeste 0 -- -- 33
2019-08-11 19:00:00 22.2 9 Noroeste 26 Noroeste 0 -- -- 36
2019-08-11 18:00:00 22.1 9 Oeste 27 Noroeste 0 -- -- 36
2019-08-11 17:00:00 24.1 17 Sudoeste 33 Oeste 0 -- -- 33
2019-08-11 16:00:00 24.4 15 Sudoeste 27 Oeste 0 -- -- 38
2019-08-11 15:00:00 23 13 Sur 23 Sudoeste 0 -- -- 47
2019-08-11 14:00:00 21.3 12 Sudoeste 21 Sudoeste 0 -- -- 52
2019-08-11 13:00:00 19 12 Oeste 18 Oeste 0 -- -- 63
2019-08-11 12:00:00 17.1 11 Oeste 16 Oeste 0 -- -- 77
2019-08-11 11:00:00 15.5 7 Oeste 13 Oeste 0 -- -- 82
2019-08-11 10:00:00 15.2 4 Oeste 10 Sudeste 0 -- -- 81
2019-08-11 09:00:00 13.9 4 Este 13 Este 0 -- -- 86
2019-08-11 08:00:00 12.6 7 Este 17 Nordeste 0 -- -- 88
2019-08-11 07:00:00 12.5 6 Este 16 Este 0 -- -- 88
2019-08-11 06:00:00 12.6 8 Nordeste 18 Nordeste 0.2 -- -- 87
2019-08-11 05:00:00 12.8 8 Nordeste 14 Nordeste 1.4 -- -- 89
2019-08-11 04:00:00 13.6 8 Norte 14 Norte 0.4 -- -- 83
2019-08-11 03:00:00 14.7 10 Nordeste 22 Nordeste 0 -- -- 72
2019-08-11 02:00:00 15.4 13 Nordeste 23 Nordeste 0 -- -- 68
2019-08-11 01:00:00 15.9 10 Este 24 Nordeste 0 -- -- 69
2019-08-11 00:00:00 17.2 11 Este 22 Noroeste 0 -- -- 66
2019-08-10 23:00:00 20.4 14 Noroeste 26 Oeste 0 -- -- 46
2019-08-10 22:00:00 22.2 14 Oeste 22 Oeste 0 -- -- 33
2019-08-10 21:00:00 23.5 10 Oeste 21 Oeste 0 -- -- 29
2019-08-10 20:00:00 25.8 15 Oeste 28 Sudoeste 0 -- -- 27
2019-08-10 19:00:00 27 12 Sudoeste 33 Oeste 0 -- -- 25
2019-08-10 18:00:00 28.1 15 Sudoeste 27 Sudoeste 0 -- -- 23
2019-08-10 17:00:00 28 10 Sudoeste 25 Sudoeste 0 -- -- 24
2019-08-10 16:00:00 26.3 9 Sudoeste 21 Sudeste 0 -- -- 28
2019-08-10 15:00:00 25.1 6 Sur 20 Sudoeste 0 -- -- 31
2019-08-10 14:00:00 24.4 7 Sur 17 Oeste 0 -- -- 35
2019-08-10 13:00:00 22.2 8 Oeste 17 Oeste 0 -- -- 42
2019-08-10 12:00:00 21.7 4 Sudeste 17 Sur 0 -- -- 46
2019-08-10 11:00:00 20.6 4 Sudeste 17 Noroeste 0 -- -- 51
2019-08-10 10:00:00 16.3 12 Noroeste 18 Noroeste 0 -- -- 62
2019-08-10 09:00:00 15.4 5 Oeste 10 Oeste 0 -- -- 72
2019-08-10 08:00:00 14.5 4 Sudoeste 9 Oeste 0 -- -- 76
2019-08-10 07:00:00 14.6 5 Oeste 16 Sudoeste 0 -- -- 74
2019-08-10 06:00:00 14.7 10 Sudoeste 13 Oeste 0 -- -- 73
2019-08-10 05:00:00 14.9 9 Sudoeste 14 Sudoeste 0 -- -- 71
2019-08-10 04:00:00 14.9 9 Sudoeste 18 Oeste 0 -- -- 70
2019-08-10 03:00:00 15.1 9 Oeste 13 Oeste 0 -- -- 69
2019-08-10 02:00:00 14.7 11 Sudoeste 16 Sudoeste 0 -- -- 69
2019-08-10 01:00:00 15.2 5 Oeste 18 Oeste 0 -- -- 66
2019-08-10 00:00:00 16.3 12 Oeste 19 Oeste 0 -- -- 62
2019-08-09 23:00:00 18.2 15 Oeste 24 Oeste 0 -- -- 53
2019-08-09 22:00:00 19.6 14 Oeste 26 Oeste 0 -- -- 49
2019-08-09 21:00:00 21.6 18 Oeste 32 Oeste 0 -- -- 44
2019-08-09 20:00:00 22.4 22 Oeste 35 Oeste 0 -- -- 45
2019-08-09 19:00:00 24.2 24 Oeste 42 Sudoeste 0 -- -- 42
2019-08-09 18:00:00 24.3 27 Oeste 62 Oeste 0 -- -- 40
2019-08-09 17:00:00 24.8 35 Oeste 54 Oeste 0 -- -- 37
2019-08-09 16:00:00 25.3 33 Sudoeste 50 Sudoeste 0 -- -- 37
2019-08-09 15:00:00 23.7 33 Sudoeste 48 Sudoeste 0 -- -- 39
2019-08-09 14:00:00 23.1 34 Sudoeste 52 Oeste 0 -- -- 47
2019-08-09 13:00:00 23 32 Sudoeste 49 Sudoeste 0 -- -- 47
2019-08-09 12:00:00 19.9 28 Sudoeste 50 Oeste 0 -- -- 66
2019-08-09 11:00:00 19.2 34 Sudoeste 51 Sudoeste 0 -- -- 70
2019-08-09 10:00:00 17.5 31 Oeste 49 Oeste 0 -- -- 87
2019-08-09 09:00:00 18.2 31 Oeste 48 Sudoeste 0 -- -- 89
2019-08-09 08:00:00 19.3 21 Sudoeste 37 Sudoeste 0 -- -- 82
2019-08-09 07:00:00 19 20 Sudoeste 31 Sudoeste 0 -- -- 80
2019-08-09 06:00:00 19.2 22 Sudoeste 30 Sudoeste 0 -- -- 78
2019-08-09 05:00:00 19.3 18 Sudoeste 30 Sudoeste 0 -- -- 75
2019-08-09 04:00:00 20 19 Sudoeste 30 Sudoeste 0 -- -- 72
2019-08-09 03:00:00 19.5 14 Sudoeste 26 Sudoeste 0 -- -- 72
2019-08-09 02:00:00 20.2 18 Sudoeste 26 Oeste 0 -- -- 69
2019-08-09 01:00:00 21.5 17 Sudoeste 28 Sudoeste 0 -- -- 64
2019-08-09 00:00:00 21.3 8 Oeste 15 Oeste 0 -- -- 65
2019-08-08 23:00:00 23.1 12 Oeste 33 Oeste 0 -- -- 59
2019-08-08 22:00:00 24.8 16 Oeste 35 Sudoeste 0 -- -- 57
2019-08-08 21:00:00 26.2 25 Sudoeste 43 Sudoeste 0 -- -- 51
2019-08-08 20:00:00 29 27 Sudoeste 50 Sudoeste 0 -- -- 44
2019-08-08 19:00:00 29.7 31 Sudoeste 49 Sudoeste 0 -- -- 41
2019-08-08 18:00:00 30 33 Sudoeste 50 Sudoeste 0 -- -- 42
2019-08-08 17:00:00 30.6 33 Sudoeste 48 Sudoeste 0 -- -- 43
2019-08-08 16:00:00 27.1 12 Sudoeste 29 Sudoeste 0 -- -- 57
2019-08-08 15:00:00 26.8 16 Sudoeste 27 Sudoeste 0 -- -- 58
2019-08-08 14:00:00 23.4 5 Nordeste 15 Sudoeste 0 -- -- 71
2019-08-08 13:00:00 24.4 14 Sudoeste 32 Oeste 0 -- -- 69
2019-08-08 12:00:00 20.8 17 Sudoeste 25 Sudoeste 0 -- -- 85
2019-08-08 11:00:00 18.3 15 Sudoeste 32 Sudoeste 0.2 -- -- 94
2019-08-08 10:00:00 20.1 18 Sudoeste 26 Sudoeste 0 -- -- 78
2019-08-08 09:00:00 18.2 13 Sudoeste 31 Sudoeste 0 -- -- 88
2019-08-08 08:00:00 18.4 11 Sudoeste 17 Sudoeste 0 -- -- 81
2019-08-08 07:00:00 18 8 Sur 13 Sur 0 -- -- 86
2019-08-08 06:00:00 17.8 6 Sudeste 13 Sudoeste 0 -- -- 91
2019-08-08 05:00:00 17.6 9 Sudoeste 21 Sudoeste 0 -- -- 91
2019-08-08 04:00:00 17.9 8 Sudoeste 11 Sudoeste 0 -- -- 89
2019-08-08 03:00:00 17.9 4 Sur 11 Sudoeste 0 -- -- 91
2019-08-08 02:00:00 17.8 7 Sur 10 Sur 0 -- -- 92
2019-08-08 01:00:00 17.6 3 Sur 6 Sur 0 -- -- 92
2019-08-08 00:00:00 17.5 3 Sudoeste 9 Sur 0 -- -- 91
2019-08-07 23:00:00 17.6 5 Oeste 9 Oeste 0.2 -- -- 91
2019-08-07 22:00:00 17.9 6 Noroeste 20 Oeste 0 -- -- 90
2019-08-07 21:00:00 18.3 16 Oeste 36 Oeste 0.4 -- -- 88
2019-08-07 20:00:00 18.7 23 Oeste 46 Oeste 0.2 -- -- 81
2019-08-07 19:00:00 22.5 15 Oeste 36 Sudoeste 0 -- -- 53
2019-08-07 18:00:00 21.6 20 Noroeste 28 Noroeste 0 -- -- 60
2019-08-07 17:00:00 22.3 14 Noroeste 28 Oeste 0 -- -- 56
2019-08-07 16:00:00 22.9 17 Oeste 44 Sudoeste 0 -- -- 55
2019-08-07 15:00:00 26.4 16 Sudoeste 33 Sudoeste 0 -- -- 40
2019-08-07 14:00:00 24.7 14 Oeste 25 Sudoeste 0 -- -- 44
2019-08-07 13:00:00 26.2 11 Sudoeste 19 Sudoeste 0 -- -- 40
2019-08-07 12:00:00 25.7 6 Sudoeste 13 Sudoeste 0 -- -- 42
2019-08-07 11:00:00 24.2 4 Sudeste 8 Sudeste 0 -- -- 55
2019-08-07 10:00:00 22.1 2 Sudoeste 6 Sur 0 -- -- 62
2019-08-07 09:00:00 18.2 0 Calma 5 Este 0 -- -- 78
2019-08-07 08:00:00 16.6 0 Calma 4 Sudoeste 0.2 -- -- 83
2019-08-07 07:00:00 15.6 0 Calma 6 Sudeste 0 -- -- 89
2019-08-07 06:00:00 16.3 2 Sudoeste 12 Oeste 0 -- -- 87
2019-08-07 05:00:00 17.2 7 Oeste 14 Oeste 0 -- -- 86
2019-08-07 04:00:00 17.7 4 Oeste 9 Oeste 0 -- -- 88
2019-08-07 03:00:00 17.8 4 Sudoeste 8 Sudoeste 0 -- -- 89
2019-08-07 02:00:00 18.1 7 Sudeste 18 Sur 0 -- -- 88
2019-08-07 01:00:00 18.6 7 Sudeste 12 Sudeste 0 -- -- 84
2019-08-07 00:00:00 21.1 4 Nordeste 19 Norte 0.4 -- -- 71
2019-08-06 23:00:00 20.3 8 Norte 41 Noroeste 0.2 -- -- 73
2019-08-06 22:00:00 22.2 24 Noroeste 40 Noroeste 0 -- -- 62
2019-08-06 21:00:00 25.3 24 Noroeste 36 Noroeste 0 -- -- 45
2019-08-06 20:00:00 28 24 Oeste 33 Oeste 0 -- -- 35
2019-08-06 19:00:00 29.2 17 Oeste 29 Oeste 0 -- -- 31
2019-08-06 18:00:00 29.8 13 Sudoeste 24 Sudoeste 0 -- -- 32
2019-08-06 17:00:00 30.4 11 Oeste 23 Sudoeste 0 -- -- 28
2019-08-06 16:00:00 29.4 10 Sudoeste 23 Oeste 0 -- -- 33
2019-08-06 15:00:00 29.6 14 Oeste 23 Oeste 0 -- -- 33
2019-08-06 14:00:00 30 9 Sudoeste 21 Sudoeste 0 -- -- 37
2019-08-06 13:00:00 26.5 7 Oeste 15 Sudoeste 0 -- -- 45
2019-08-06 12:00:00 24.7 4 Sudoeste 9 Sur 0 -- -- 50
2019-08-06 11:00:00 23.7 5 Sudeste 8 Nordeste 0 -- -- 50
2019-08-06 10:00:00 21 5 Este 12 Nordeste 0 -- -- 55
2019-08-06 09:00:00 18.7 6 Nordeste 10 Nordeste 0 -- -- 60
2019-08-06 08:00:00 15.1 3 Nordeste 5 Norte 0 -- -- 75
2019-08-06 07:00:00 15.2 3 Nordeste 8 Este 0 -- -- 75
2019-08-06 06:00:00 16 3 Nordeste 9 Nordeste 0 -- -- 72
2019-08-06 05:00:00 16.7 4 Nordeste 13 Nordeste 0 -- -- 67
2019-08-06 04:00:00 17.5 8 Nordeste 13 Este 0 -- -- 62
2019-08-06 03:00:00 18.2 6 Nordeste 15 Este 0 -- -- 61
2019-08-06 02:00:00 19.5 8 Nordeste 17 Este 0 -- -- 60
2019-08-06 01:00:00 21.1 6 Este 18 Sudeste 0 -- -- 63
2019-08-06 00:00:00 23 8 Este 20 Nordeste 0 -- -- 59
2019-08-05 23:00:00 25.5 10 Oeste 17 Oeste 0 -- -- 38
2019-08-05 22:00:00 25.2 2 Oeste 6 Nordeste 0 -- -- 41
2019-08-05 21:00:00 30.7 3 Norte 12 Noroeste 0 -- -- 28
2019-08-05 20:00:00 31.2 6 Noroeste 18 Noroeste 0 -- -- 26
2019-08-05 19:00:00 31.6 12 Noroeste 25 Noroeste 0 -- -- 26
2019-08-05 18:00:00 32.1 10 Sudoeste 25 Oeste 0 -- -- 26
2019-08-05 17:00:00 32 11 Sudoeste 23 Sudoeste 0 -- -- 28
2019-08-05 16:00:00 30.6 11 Oeste 25 Sudoeste 0 -- -- 32
2019-08-05 15:00:00 30.4 9 Sur 23 Sur 0 -- -- 35
2019-08-05 14:00:00 28.8 6 Oeste 16 Oeste 0 -- -- 40
2019-08-05 13:00:00 27 6 Norte 12 Noroeste 0 -- -- 43
2019-08-05 12:00:00 25 6 Norte 12 Norte 0 -- -- 50
2019-08-05 11:00:00 23.1 5 Nordeste 15 Nordeste 0 -- -- 56
2019-08-05 10:00:00 20.7 8 Nordeste 17 Nordeste 0 -- -- 63
2019-08-05 09:00:00 18.1 9 Nordeste 14 Nordeste 0 -- -- 74
2019-08-05 08:00:00 15.1 7 Nordeste 10 Nordeste 0 -- -- 84
2019-08-05 07:00:00 15.5 6 Nordeste 13 Este 0 -- -- 84
2019-08-05 06:00:00 15.8 6 Nordeste 15 Este 0 -- -- 82
2019-08-05 05:00:00 16.4 7 Nordeste 14 Nordeste 0 -- -- 80
2019-08-05 04:00:00 16.8 7 Este 21 Este 0 -- -- 79
2019-08-05 03:00:00 17.1 8 Este 21 Nordeste 0 -- -- 78
2019-08-05 02:00:00 17.7 10 Nordeste 21 Este 0 -- -- 77
2019-08-05 01:00:00 18.8 10 Nordeste 23 Nordeste 0 -- -- 72
2019-08-05 00:00:00 22.7 10 Norte 20 Noroeste 0 -- -- 48
2019-08-04 23:00:00 23.9 14 Noroeste 18 Noroeste 0 -- -- 43
2019-08-04 22:00:00 25.7 10 Oeste 22 Oeste 0 -- -- 35
2019-08-04 21:00:00 29.5 17 Oeste 27 Sudoeste 0 -- -- 27
2019-08-04 20:00:00 31.3 21 Oeste 29 Oeste 0 -- -- 26
2019-08-04 19:00:00 32.3 19 Oeste 32 Oeste 0 -- -- 25
2019-08-04 18:00:00 33 14 Sudoeste 32 Sudoeste 0 -- -- 27
2019-08-04 17:00:00 33.4 16 Sudoeste 33 Sudoeste 0 -- -- 27
2019-08-04 16:00:00 31.5 13 Oeste 26 Sudoeste 0 -- -- 31
2019-08-04 15:00:00 31.5 10 Sudoeste 21 Sudoeste 0 -- -- 33
2019-08-04 14:00:00 29.7 11 Sudoeste 20 Sudoeste 0 -- -- 38
2019-08-04 13:00:00 27.4 5 Norte 16 Nordeste 0 -- -- 43
2019-08-04 12:00:00 26.3 6 Nordeste 19 Nordeste 0 -- -- 49
2019-08-04 11:00:00 23.1 5 Nordeste 13 Nordeste 0 -- -- 55
2019-08-04 10:00:00 21.1 9 Nordeste 16 Este 0 -- -- 61
2019-08-04 09:00:00 18.7 9 Nordeste 14 Nordeste 0 -- -- 67
2019-08-04 08:00:00 15.3 3 Norte 6 Noroeste 0 -- -- 77
2019-08-04 07:00:00 14.8 0 Calma 5 Oeste 0 -- -- 78
2019-08-04 06:00:00 16.1 4 Oeste 10 Nordeste 0 -- -- 74
2019-08-04 05:00:00 18.4 5 Este 12 Este 0 -- -- 66
2019-08-04 04:00:00 19.2 6 Este 12 Norte 0 -- -- 64
2019-08-04 03:00:00 19.3 6 Nordeste 15 Nordeste 0 -- -- 64
2019-08-04 02:00:00 20.5 7 Nordeste 16 Nordeste 0 -- -- 62
2019-08-04 01:00:00 21.7 10 Nordeste 18 Nordeste 0 -- -- 60
2019-08-04 00:00:00 23.6 8 Este 21 Noroeste 0 -- -- 58
2019-08-03 23:00:00 25.4 16 Noroeste 28 Oeste 0 -- -- 37
2019-08-03 22:00:00 26.9 12 Oeste 23 Oeste 0 -- -- 35
2019-08-03 21:00:00 30.7 3 Sudoeste 17 Oeste 0 -- -- 29
2019-08-03 20:00:00 32.7 12 Oeste 21 Noroeste 0 -- -- 24
2019-08-03 19:00:00 33 10 Noroeste 29 Oeste 0 -- -- 24
2019-08-03 18:00:00 33.8 12 Oeste 24 Oeste 0 -- -- 23
2019-08-03 17:00:00 33 5 Norte 28 Sudoeste 0 -- -- 25
2019-08-03 16:00:00 34.5 11 Sudoeste 21 Oeste 0 -- -- 23
2019-08-03 15:00:00 32.5 6 Oeste 20 Oeste 0 -- -- 25
2019-08-03 14:00:00 31.9 6 Este 13 Sur 0 -- -- 29
2019-08-03 13:00:00 29.8 5 Noroeste 13 Nordeste 0 -- -- 33
2019-08-03 12:00:00 27.9 6 Nordeste 14 Este 0 -- -- 36
2019-08-03 11:00:00 26 8 Este 18 Este 0 -- -- 40
2019-08-03 10:00:00 23.3 7 Este 15 Nordeste 0 -- -- 44
2019-08-03 09:00:00 20.1 6 Nordeste 15 Nordeste 0 -- -- 51
2019-08-03 08:00:00 17.1 5 Nordeste 12 Nordeste 0 -- -- 59
2019-08-03 07:00:00 16.9 6 Nordeste 13 Nordeste 0 -- -- 61
2019-08-03 06:00:00 17.8 7 Nordeste 19 Nordeste 0 -- -- 59
2019-08-03 05:00:00 18.2 9 Nordeste 18 Nordeste 0 -- -- 63
2019-08-03 04:00:00 18.5 9 Nordeste 20 Este 0 -- -- 67
2019-08-03 03:00:00 19.3 9 Nordeste 20 Este 0 -- -- 63
2019-08-03 02:00:00 20.1 9 Nordeste 21 Este 0 -- -- 66
2019-08-03 01:00:00 21.2 8 Nordeste 22 Este 0 -- -- 63
2019-08-03 00:00:00 22.4 10 Nordeste 22 Este 0 -- -- 51
2019-08-02 23:00:00 24.1 10 Nordeste 21 Nordeste 0 -- -- 45
2019-08-02 22:00:00 24.9 6 Norte 17 Noroeste 0 -- -- 34
2019-08-02 21:00:00 29.7 8 Noroeste 14 Noroeste 0 -- -- 28
2019-08-02 20:00:00 31.2 8 Oeste 17 Noroeste 0 -- -- 24
2019-08-02 19:00:00 31.8 6 Nordeste 18 Noroeste 0 -- -- 23
2019-08-02 18:00:00 31.3 11 Oeste 17 Noroeste 0 -- -- 27
2019-08-02 17:00:00 31.2 5 Noroeste 17 Noroeste 0 -- -- 26
2019-08-02 16:00:00 30.2 9 Noroeste 18 Oeste 0 -- -- 27
2019-08-02 15:00:00 29.7 6 Noroeste 16 Sudeste 0 -- -- 29
2019-08-02 14:00:00 28.8 6 Este 19 Este 0 -- -- 40
2019-08-02 13:00:00 26.4 7 Este 18 Nordeste 0 -- -- 47
2019-08-02 12:00:00 24.2 6 Este 20 Nordeste 0 -- -- 49
2019-08-02 11:00:00 20.7 10 Nordeste 21 Nordeste 0 -- -- 60
2019-08-02 10:00:00 18.3 11 Nordeste 25 Nordeste 0 -- -- 68
2019-08-02 09:00:00 15.8 13 Nordeste 23 Nordeste 0 -- -- 77
2019-08-02 08:00:00 13.7 10 Nordeste 21 Este 0 -- -- 86
2019-08-02 07:00:00 13.4 8 Nordeste 17 Nordeste 0 -- -- 87
2019-08-02 06:00:00 13.7 8 Nordeste 22 Nordeste 0 -- -- 85
2019-08-02 05:00:00 14.4 11 Nordeste 23 Nordeste 0 -- -- 83
2019-08-02 04:00:00 14.5 9 Nordeste 19 Este 0 -- -- 82
2019-08-02 03:00:00 14.8 8 Nordeste 21 Este 0 -- -- 80
2019-08-02 02:00:00 15.5 10 Nordeste 23 Este 0 -- -- 78
2019-08-02 01:00:00 16 13 Nordeste 30 Nordeste 0 -- -- 76
2019-08-02 00:00:00 16.8 13 Este 31 Este 0 -- -- 74
2019-08-01 23:00:00 18.1 15 Este 36 Este 0 -- -- 71
2019-08-01 22:00:00 21 17 Este 37 Este 0 -- -- 63
2019-08-01 21:00:00 26.4 10 Nordeste 29 Este 0 -- -- 46
2019-08-01 20:00:00 29.6 7 Norte 27 Oeste 0 -- -- 26
2019-08-01 19:00:00 30.1 6 Norte 28 Oeste 0 -- -- 23
2019-08-01 18:00:00 30.2 9 Oeste 25 Sudoeste 0 -- -- 25
2019-08-01 17:00:00 29.3 11 Oeste 36 Sudoeste 0 -- -- 30
2019-08-01 16:00:00 29.4 8 Sudoeste 25 Sudoeste 0 -- -- 32
2019-08-01 15:00:00 28.2 8 Norte 21 Oeste 0 -- -- 37
2019-08-01 14:00:00 28.6 6 Sur 13 Sudeste 0 -- -- 43
2019-08-01 13:00:00 25.4 4 Este 16 Nordeste 0 -- -- 51
2019-08-01 12:00:00 22.7 8 Norte 15 Norte 0 -- -- 57
2019-08-01 11:00:00 21.6 8 Este 18 Nordeste 0 -- -- 61
2019-08-01 10:00:00 19.1 9 Nordeste 21 Nordeste 0 -- -- 67
2019-08-01 09:00:00 16.5 10 Nordeste 22 Nordeste 0 -- -- 75
2019-08-01 08:00:00 14.5 9 Nordeste 19 Nordeste 0 -- -- 81
2019-08-01 07:00:00 13.9 9 Nordeste 19 Este 0 -- -- 81
2019-08-01 06:00:00 14.4 10 Nordeste 19 Nordeste 0 -- -- 79
2019-08-01 05:00:00 14.8 10 Nordeste 19 Este 0 -- -- 77
2019-08-01 04:00:00 15.4 7 Nordeste 21 Este 0 -- -- 75
2019-08-01 03:00:00 15.8 10 Nordeste 24 Este 0 -- -- 73
2019-08-01 02:00:00 16.4 12 Nordeste 26 Nordeste 0 -- -- 70
2019-08-01 01:00:00 17.4 12 Nordeste 26 Nordeste 0 -- -- 67
2019-08-01 00:00:00 18.5 13 Nordeste 27 Este 0 -- -- 63
2019-07-31 23:00:00 20.2 12 Nordeste 29 Este 0 -- -- 57
2019-07-31 22:00:00 21.6 14 Nordeste 29 Nordeste 0 -- -- 51
2019-07-31 21:00:00 23.8 12 Nordeste 28 Nordeste 0 -- -- 42
2019-07-31 20:00:00 25.4 11 Nordeste 29 Nordeste 0 -- -- 37
2019-07-31 19:00:00 26.4 10 Nordeste 20 Este 0 -- -- 34
2019-07-31 18:00:00 27 9 Este 22 Este 0 -- -- 34
2019-07-31 17:00:00 29.3 8 Sudeste 23 Nordeste 0 -- -- 32
2019-07-31 16:00:00 26.4 11 Nordeste 26 Nordeste 0 -- -- 33
2019-07-31 15:00:00 24.9 11 Este 28 Este 0 -- -- 36
2019-07-31 14:00:00 23.4 13 Nordeste 22 Este 0 -- -- 40
2019-07-31 13:00:00 22.5 11 Este 24 Nordeste 0 -- -- 41
2019-07-31 12:00:00 20.4 13 Nordeste 27 Nordeste 0 -- -- 47
2019-07-31 11:00:00 17.9 13 Nordeste 29 Este 0 -- -- 54
2019-07-31 10:00:00 15.7 15 Nordeste 31 Nordeste 0 -- -- 62
2019-07-31 09:00:00 13.2 16 Nordeste 31 Este 0 -- -- 74
2019-07-31 08:00:00 11.7 14 Nordeste 24 Nordeste 0 -- -- 80
2019-07-31 07:00:00 11.2 11 Nordeste 28 Nordeste 0 -- -- 83
2019-07-31 06:00:00 11.5 11 Nordeste 27 Nordeste 0 -- -- 82
2019-07-31 05:00:00 11.7 13 Nordeste 31 Nordeste 0 -- -- 81
2019-07-31 04:00:00 12 11 Nordeste 28 Nordeste 0 -- -- 79
2019-07-31 03:00:00 12.3 14 Nordeste 33 Este 0 -- -- 78
2019-07-31 02:00:00 12.8 16 Este 31 Este 0 -- -- 75
2019-07-31 01:00:00 13.6 14 Nordeste 33 Nordeste 0 -- -- 70
2019-07-31 00:00:00 14.6 13 Nordeste 31 Este 0 -- -- 64
2019-07-30 23:00:00 16 14 Nordeste 31 Nordeste 0 -- -- 60
2019-07-30 22:00:00 18.9 12 Este 29 Este 0 -- -- 50
2019-07-30 21:00:00 24.1 4 Este 11 Norte 0 -- -- 30
2019-07-30 20:00:00 26.2 3 Sur 14 Noroeste 0 -- -- 26
2019-07-30 19:00:00 24.6 5 Nordeste 17 Nordeste 0 -- -- 30
2019-07-30 18:00:00 24.9 6 Norte 17 Este 0 -- -- 31
2019-07-30 17:00:00 24 8 Noroeste 18 Nordeste 0 -- -- 31
2019-07-30 16:00:00 24 6 Este 22 Norte 0 -- -- 33
2019-07-30 15:00:00 22.7 6 Este 18 Este 0 -- -- 36
2019-07-30 14:00:00 21.4 6 Nordeste 27 Nordeste 0 -- -- 43
2019-07-30 13:00:00 20.8 6 Este 17 Nordeste 0 -- -- 47
2019-07-30 12:00:00 19.4 7 Este 18 Sudeste 0 -- -- 51
2019-07-30 11:00:00 17.6 5 Este 18 Este 0 -- -- 60
2019-07-30 10:00:00 16.3 8 Nordeste 16 Nordeste 0 -- -- 66
2019-07-30 09:00:00 13.2 6 Norte 16 Norte 0 -- -- 73
2019-07-30 08:00:00 9.5 5 Norte 12 Noroeste 0 -- -- 81
2019-07-30 07:00:00 9.1 4 Noroeste 12 Noroeste 0 -- -- 81
2019-07-30 06:00:00 10.4 10 Noroeste 20 Noroeste 0 -- -- 76
2019-07-30 05:00:00 10.9 8 Norte 18 Noroeste 0 -- -- 74
2019-07-30 04:00:00 12 14 Norte 25 Noroeste 0 -- -- 69
2019-07-30 03:00:00 12.7 14 Noroeste 22 Noroeste 0 -- -- 70
2019-07-30 02:00:00 13.6 17 Noroeste 29 Noroeste 0 -- -- 66
2019-07-30 01:00:00 14.7 20 Noroeste 28 Noroeste 0 -- -- 58
2019-07-30 00:00:00 15.7 19 Noroeste 31 Noroeste 0 -- -- 55
2019-07-29 23:00:00 17.1 18 Noroeste 27 Noroeste 0 -- -- 49
2019-07-29 22:00:00 18.5 19 Noroeste 42 Noroeste 0 -- -- 40
2019-07-29 21:00:00 21.1 26 Noroeste 35 Noroeste 0 -- -- 39
2019-07-29 20:00:00 23.2 21 Noroeste 35 Oeste 0 -- -- 34
2019-07-29 19:00:00 24.3 22 Noroeste 39 Oeste 0 -- -- 33
2019-07-29 18:00:00 25.3 22 Oeste 39 Oeste 0 -- -- 35
2019-07-29 17:00:00 25.5 20 Oeste 37 Oeste 0 -- -- 35
2019-07-29 16:00:00 25.5 21 Oeste 44 Sudoeste 0 -- -- 32
2019-07-29 15:00:00 25.8 19 Sudoeste 36 Sudoeste 0 -- -- 32
2019-07-29 14:00:00 24.4 22 Oeste 39 Sudoeste 0 -- -- 38
2019-07-29 13:00:00 23.8 24 Sudoeste 38 Sudoeste 0 -- -- 46
2019-07-29 12:00:00 21.6 18 Oeste 28 Sudoeste 0 -- -- 53
2019-07-29 11:00:00 20.4 18 Sudoeste 28 Sudoeste 0 -- -- 52
2019-07-29 10:00:00 19.3 16 Sudoeste 24 Oeste 0 -- -- 46
2019-07-29 09:00:00 16.4 20 Sudoeste 26 Sudoeste 0 -- -- 49
2019-07-29 08:00:00 14.2 12 Sudoeste 18 Sudoeste 0 -- -- 58
2019-07-29 07:00:00 12.9 12 Sudoeste 21 Sudoeste 0 -- -- 62
2019-07-29 06:00:00 13.8 13 Oeste 23 Sudoeste 0 -- -- 65
2019-07-29 05:00:00 15.2 15 Sudoeste 21 Sudoeste 0 -- -- 61
2019-07-29 04:00:00 16 17 Sudoeste 23 Sudoeste 0 -- -- 53
2019-07-29 03:00:00 15.6 6 Sudoeste 12 Oeste 0 -- -- 55
2019-07-29 02:00:00 15.4 5 Sudoeste 9 Sudoeste 0 -- -- 56
2019-07-29 01:00:00 16 0 Calma 6 Sudoeste 0 -- -- 53
2019-07-29 00:00:00 17.2 0 Calma 7 Sur 0 -- -- 48
2019-07-28 23:00:00 18.7 3 Sur 6 Sudeste 0 -- -- 46
2019-07-28 22:00:00 21.3 4 Sudeste 9 Este 0 -- -- 37
2019-07-28 21:00:00 26.8 5 Sur 10 Sudoeste 0 -- -- 26
2019-07-28 20:00:00 27.5 9 Sudoeste 21 Sudoeste 0 -- -- 24
2019-07-28 19:00:00 27.2 6 Oeste 22 Sudoeste 0 -- -- 25
2019-07-28 18:00:00 25.6 9 Noroeste 21 Oeste 0 -- -- 30
2019-07-28 17:00:00 25.9 8 Sur 20 Oeste 0 -- -- 31
2019-07-28 16:00:00 23.6 6 Noroeste 22 Sudoeste 0 -- -- 38
2019-07-28 15:00:00 22.9 8 Sudoeste 15 Sudoeste 0 -- -- 38
2019-07-28 14:00:00 22.7 6 Sur 21 Oeste 0 -- -- 41
2019-07-28 13:00:00 19.9 8 Sudoeste 14 Sudoeste 0 -- -- 50
2019-07-28 12:00:00 19.8 8 Sudeste 16 Este 0 -- -- 50
2019-07-28 11:00:00 18 6 Nordeste 13 Este 0 -- -- 58
2019-07-28 10:00:00 16.1 7 Este 17 Este 0 -- -- 66
2019-07-28 09:00:00 14.2 6 Este 12 Este 0 -- -- 75
2019-07-28 08:00:00 11.5 3 Este 5 Este 0 -- -- 89
2019-07-28 07:00:00 9.1 0 Calma 4 Este 0 -- -- 92
2019-07-28 06:00:00 9.4 0 Calma 4 Este 0 -- -- 90
2019-07-28 05:00:00 9.9 0 Calma 4 Nordeste 0 -- -- 91
2019-07-28 04:00:00 10.1 0 Calma 4 Norte 0 -- -- 90
2019-07-28 03:00:00 11.8 4 Nordeste 9 Nordeste 0 -- -- 83
2019-07-28 02:00:00 11.8 2 Este 13 Nordeste 0 -- -- 84
2019-07-28 01:00:00 13 5 Este 21 Este 0 -- -- 78
2019-07-28 00:00:00 14.4 9 Este 21 Este 0 -- -- 73
2019-07-27 23:00:00 15 6 Este 19 Este 0 -- -- 75
2019-07-26 12:00:00 22 6 Sudoeste 18 Oeste 0 -- -- 54
2019-07-26 11:00:00 19.4 10 Noroeste 17 Oeste 0 -- -- 63
2019-07-26 10:00:00 17 11 Oeste 17 Noroeste 0 -- -- 72
2019-07-26 09:00:00 16.8 12 Noroeste 18 Noroeste 0 -- -- 76
2019-07-26 08:00:00 16.8 9 Noroeste 15 Noroeste 0 -- -- 79
2019-07-26 07:00:00 16.6 10 Noroeste 15 Oeste 0 -- -- 80
2019-07-26 06:00:00 16.9 9 Noroeste 16 Noroeste 0 -- -- 83
2019-07-26 05:00:00 17.1 7 Oeste 22 Noroeste 0.2 -- -- 87
2019-07-26 04:00:00 18.3 8 Oeste 12 Oeste 0 -- -- 82
2019-07-26 03:00:00 19.3 6 Noroeste 16 Noroeste 0 -- -- 77
2019-07-26 02:00:00 20.2 5 Norte 14 Noroeste 0 -- -- 75
2019-07-26 01:00:00 21.7 9 Oeste 29 Oeste 0 -- -- 61
2019-07-26 00:00:00 23.4 10 Oeste 16 Sudoeste 0 -- -- 52
2019-07-25 23:00:00 23.3 7 Noroeste 24 Noroeste 0 -- -- 53
2019-07-25 22:00:00 24.1 14 Noroeste 35 Noroeste 0 -- -- 49
2019-07-25 21:00:00 26.3 22 Noroeste 36 Oeste 0 -- -- 43
2019-07-25 20:00:00 29.1 28 Oeste 41 Oeste 0 -- -- 34
2019-07-25 19:00:00 31.1 21 Oeste 39 Sudoeste 0 -- -- 28
2019-07-25 18:00:00 32.2 23 Sudoeste 41 Sudoeste 0 -- -- 26
2019-07-25 17:00:00 31.4 24 Sudoeste 42 Sudoeste 0 -- -- 25
2019-07-25 16:00:00 32.2 29 Sudoeste 45 Oeste 0 -- -- 23
2019-07-25 15:00:00 32.3 27 Sudoeste 43 Sudoeste 0 -- -- 25
2019-07-25 14:00:00 32.2 29 Sudoeste 43 Sudoeste 0 -- -- 23
2019-07-25 13:00:00 31.1 18 Sudoeste 33 Sudoeste 0 -- -- 31
2019-07-25 12:00:00 29.3 9 Sur 18 Sudoeste 0 -- -- 36
2019-07-25 11:00:00 26.5 11 Sudoeste 22 Sudoeste 0 -- -- 41
2019-07-25 10:00:00 23.4 17 Oeste 24 Sudoeste 0 -- -- 48
2019-07-25 09:00:00 23.3 14 Sudoeste 19 Sudoeste 0 -- -- 51
2019-07-25 08:00:00 19.7 13 Sudoeste 19 Sudoeste 0 -- -- 60
2019-07-25 07:00:00 18.6 9 Sudoeste 18 Sudoeste 0 -- -- 59
2019-07-25 06:00:00 19.2 10 Sudoeste 17 Sudoeste 0 -- -- 64
2019-07-25 05:00:00 20.1 8 Sur 13 Sur 0 -- -- 60
2019-07-25 04:00:00 19.3 2 Sudoeste 10 Sudoeste 0 -- -- 68
2019-07-25 03:00:00 20.3 8 Oeste 13 Oeste 0 -- -- 64
2019-07-25 02:00:00 21.4 10 Oeste 18 Oeste 0 -- -- 59
2019-07-25 01:00:00 23.4 12 Oeste 24 Oeste 0 -- -- 50
2019-07-25 00:00:00 25.1 18 Oeste 32 Sudoeste 0 -- -- 43
2019-07-24 23:00:00 24.4 12 Oeste 16 Oeste 0 -- -- 48
2019-07-24 22:00:00 26.3 12 Oeste 27 Sudoeste 0 -- -- 44
2019-07-24 21:00:00 31.7 14 Sudoeste 34 Sudoeste 0 -- -- 32
2019-07-24 20:00:00 34.1 22 Sudoeste 32 Sur 0 -- -- 26
2019-07-24 19:00:00 35.1 22 Sudoeste 36 Sudoeste 0 -- -- 26
2019-07-24 18:00:00 35.3 16 Sudoeste 36 Sudoeste 0 -- -- 28
2019-07-24 17:00:00 34.8 19 Sudoeste 37 Sudoeste 0 -- -- 29
2019-07-24 16:00:00 34.8 13 Sudoeste 49 Sudoeste 0 -- -- 28
2019-07-24 15:00:00 33.4 16 Sur 33 Sudoeste 0 -- -- 31
2019-07-24 14:00:00 32.3 17 Sudoeste 29 Sudoeste 0 -- -- 34
2019-07-24 13:00:00 32.2 8 Sur 15 Sudoeste 0 -- -- 37
2019-07-24 12:00:00 30.2 6 Sudeste 13 Sudeste 0 -- -- 43
2019-07-24 11:00:00 27.9 5 Sur 15 Sudeste 0 -- -- 46
2019-07-24 10:00:00 25 5 Este 17 Este 0 -- -- 53
2019-07-24 09:00:00 21.8 8 Este 16 Este 0 -- -- 63
2019-07-24 08:00:00 19 5 Nordeste 11 Nordeste 0 -- -- 72
2019-07-24 07:00:00 17.9 5 Este 9 Nordeste 0 -- -- 73
2019-07-24 06:00:00 18.3 4 Este 9 Este 0 -- -- 72
2019-07-24 05:00:00 18.8 6 Este 14 Este 0 -- -- 71
2019-07-24 04:00:00 19.3 6 Nordeste 10 Este 0 -- -- 69
2019-07-24 03:00:00 19.7 4 Nordeste 15 Este 0 -- -- 69
2019-07-24 02:00:00 20.4 4 Norte 10 Nordeste 0 -- -- 68
2019-07-24 01:00:00 21 2 Este 18 Sur 0 -- -- 65
2019-07-24 00:00:00 23.4 16 Sur 33 Sudeste 0 -- -- 56